sensor_id;sensor_type;location;lat;lon;timestamp;P1;durP1;ratioP1;P2;durP2;ratioP2
7531;SDS011;3807;49.030;8.714;2022-08-04T00:01:32;3.65;;;1.95;;
7531;SDS011;3807;49.030;8.714;2022-08-04T00:04:09;1.75;;;1.52;;
7531;SDS011;3807;49.030;8.714;2022-08-04T00:09:29;2.12;;;1.73;;
7531;SDS011;3807;49.030;8.714;2022-08-04T00:11:57;5.10;;;1.75;;
7531;SDS011;3807;49.030;8.714;2022-08-04T00:14:26;3.87;;;1.83;;
7531;SDS011;3807;49.030;8.714;2022-08-04T00:16:57;1.73;;;1.55;;
7531;SDS011;3807;49.030;8.714;2022-08-04T00:19:26;2.62;;;1.90;;
7531;SDS011;3807;49.030;8.714;2022-08-04T00:21:58;2.87;;;1.87;;
7531;SDS011;3807;49.030;8.714;2022-08-04T00:24:28;4.28;;;1.98;;
7531;SDS011;3807;49.030;8.714;2022-08-04T00:26:55;1.85;;;1.65;;
7531;SDS011;3807;49.030;8.714;2022-08-04T00:29:21;4.70;;;2.33;;
7531;SDS011;3807;49.030;8.714;2022-08-04T00:31:47;2.78;;;2.00;;
7531;SDS011;3807;49.030;8.714;2022-08-04T00:34:12;3.70;;;2.08;;
7531;SDS011;3807;49.030;8.714;2022-08-04T00:36:42;3.33;;;1.92;;
7531;SDS011;3807;49.030;8.714;2022-08-04T00:39:10;2.90;;;2.03;;
7531;SDS011;3807;49.030;8.714;2022-08-04T00:44:40;4.03;;;2.15;;
7531;SDS011;3807;49.030;8.714;2022-08-04T00:50:03;4.50;;;2.22;;
7531;SDS011;3807;49.030;8.714;2022-08-04T00:52:54;4.65;;;2.25;;
7531;SDS011;3807;49.030;8.714;2022-08-04T00:58:01;7.53;;;2.03;;
7531;SDS011;3807;49.030;8.714;2022-08-04T01:00:47;3.03;;;1.83;;
7531;SDS011;3807;49.030;8.714;2022-08-04T01:03:39;4.50;;;1.90;;
7531;SDS011;3807;49.030;8.714;2022-08-04T01:06:36;2.58;;;1.80;;
7531;SDS011;3807;49.030;8.714;2022-08-04T01:12:27;3.00;;;1.98;;
7531;SDS011;3807;49.030;8.714;2022-08-04T01:15:00;4.20;;;2.20;;
7531;SDS011;3807;49.030;8.714;2022-08-04T01:17:48;5.50;;;2.10;;
7531;SDS011;3807;49.030;8.714;2022-08-04T01:20:25;2.70;;;2.08;;
7531;SDS011;3807;49.030;8.714;2022-08-04T01:23:21;2.78;;;2.05;;
7531;SDS011;3807;49.030;8.714;2022-08-04T01:26:19;4.35;;;2.10;;
7531;SDS011;3807;49.030;8.714;2022-08-04T01:29:19;4.70;;;1.85;;
7531;SDS011;3807;49.030;8.714;2022-08-04T01:32:22;4.53;;;2.03;;
7531;SDS011;3807;49.030;8.714;2022-08-04T01:34:51;4.50;;;1.80;;
7531;SDS011;3807;49.030;8.714;2022-08-04T01:40:25;4.28;;;2.22;;
7531;SDS011;3807;49.030;8.714;2022-08-04T01:42:52;3.15;;;2.05;;
7531;SDS011;3807;49.030;8.714;2022-08-04T01:45:18;2.28;;;2.03;;
7531;SDS011;3807;49.030;8.714;2022-08-04T01:47:48;9.23;;;2.65;;
7531;SDS011;3807;49.030;8.714;2022-08-04T01:50:18;2.30;;;1.95;;
7531;SDS011;3807;49.030;8.714;2022-08-04T01:52:45;4.25;;;2.17;;
7531;SDS011;3807;49.030;8.714;2022-08-04T01:55:12;2.58;;;2.20;;
7531;SDS011;3807;49.030;8.714;2022-08-04T01:57:45;5.20;;;2.15;;
7531;SDS011;3807;49.030;8.714;2022-08-04T02:00:13;4.03;;;2.50;;
7531;SDS011;3807;49.030;8.714;2022-08-04T02:02:51;4.57;;;2.10;;
7531;SDS011;3807;49.030;8.714;2022-08-04T02:05:19;3.00;;;2.12;;
7531;SDS011;3807;49.030;8.714;2022-08-04T02:07:49;3.92;;;2.47;;
7531;SDS011;3807;49.030;8.714;2022-08-04T02:18:51;3.28;;;1.80;;
7531;SDS011;3807;49.030;8.714;2022-08-04T02:21:25;4.22;;;1.90;;
7531;SDS011;3807;49.030;8.714;2022-08-04T02:23:56;3.03;;;2.28;;
7531;SDS011;3807;49.030;8.714;2022-08-04T02:26:27;3.40;;;2.30;;
7531;SDS011;3807;49.030;8.714;2022-08-04T02:34:36;2.30;;;1.73;;
7531;SDS011;3807;49.030;8.714;2022-08-04T02:37:08;2.42;;;2.10;;
7531;SDS011;3807;49.030;8.714;2022-08-04T02:39:34;3.03;;;1.95;;
7531;SDS011;3807;49.030;8.714;2022-08-04T02:42:01;3.60;;;2.00;;
7531;SDS011;3807;49.030;8.714;2022-08-04T02:44:29;3.92;;;2.33;;
7531;SDS011;3807;49.030;8.714;2022-08-04T02:46:55;3.70;;;2.10;;
7531;SDS011;3807;49.030;8.714;2022-08-04T02:49:23;2.67;;;2.00;;
7531;SDS011;3807;49.030;8.714;2022-08-04T02:51:54;5.32;;;2.00;;
7531;SDS011;3807;49.030;8.714;2022-08-04T02:54:24;3.37;;;1.95;;
7531;SDS011;3807;49.030;8.714;2022-08-04T02:56:52;2.00;;;1.80;;
7531;SDS011;3807;49.030;8.714;2022-08-04T02:59:22;3.47;;;2.40;;
7531;SDS011;3807;49.030;8.714;2022-08-04T03:01:50;4.90;;;1.80;;
7531;SDS011;3807;49.030;8.714;2022-08-04T03:04:39;3.12;;;1.80;;
7531;SDS011;3807;49.030;8.714;2022-08-04T03:48:39;3.12;;;2.00;;
7531;SDS011;3807;49.030;8.714;2022-08-04T04:00:17;3.03;;;1.70;;
7531;SDS011;3807;49.030;8.714;2022-08-04T04:08:34;3.35;;;1.83;;
7531;SDS011;3807;49.030;8.714;2022-08-04T04:16:47;2.90;;;2.10;;
7531;SDS011;3807;49.030;8.714;2022-08-04T04:30:21;2.62;;;2.20;;
7531;SDS011;3807;49.030;8.714;2022-08-04T04:38:56;3.17;;;1.90;;
7531;SDS011;3807;49.030;8.714;2022-08-04T04:41:35;2.80;;;2.10;;
7531;SDS011;3807;49.030;8.714;2022-08-04T04:47:10;3.65;;;1.90;;
7531;SDS011;3807;49.030;8.714;2022-08-04T04:55:20;3.53;;;2.30;;
7531;SDS011;3807;49.030;8.714;2022-08-04T04:57:51;2.22;;;1.65;;
7531;SDS011;3807;49.030;8.714;2022-08-04T05:00:21;2.25;;;2.03;;
7531;SDS011;3807;49.030;8.714;2022-08-04T05:13:44;3.75;;;1.98;;
7531;SDS011;3807;49.030;8.714;2022-08-04T05:18:37;2.33;;;1.98;;
7531;SDS011;3807;49.030;8.714;2022-08-04T05:21:13;3.37;;;2.00;;
7531;SDS011;3807;49.030;8.714;2022-08-04T05:23:49;2.95;;;1.90;;
7531;SDS011;3807;49.030;8.714;2022-08-04T05:26:22;5.50;;;2.00;;
7531;SDS011;3807;49.030;8.714;2022-08-04T05:28:52;2.12;;;1.85;;
7531;SDS011;3807;49.030;8.714;2022-08-04T05:31:21;4.87;;;2.00;;
7531;SDS011;3807;49.030;8.714;2022-08-04T05:36:20;3.60;;;1.90;;
7531;SDS011;3807;49.030;8.714;2022-08-04T05:38:50;3.22;;;2.05;;
7531;SDS011;3807;49.030;8.714;2022-08-04T05:41:17;3.92;;;2.40;;
7531;SDS011;3807;49.030;8.714;2022-08-04T05:43:44;4.70;;;2.20;;
7531;SDS011;3807;49.030;8.714;2022-08-04T05:46:11;5.60;;;2.40;;
7531;SDS011;3807;49.030;8.714;2022-08-04T05:48:38;4.18;;;2.65;;
7531;SDS011;3807;49.030;8.714;2022-08-04T05:51:06;4.25;;;2.10;;
7531;SDS011;3807;49.030;8.714;2022-08-04T05:53:34;4.22;;;2.10;;
7531;SDS011;3807;49.030;8.714;2022-08-04T05:56:01;2.72;;;1.90;;
7531;SDS011;3807;49.030;8.714;2022-08-04T05:58:28;6.87;;;2.40;;
7531;SDS011;3807;49.030;8.714;2022-08-04T06:00:55;8.07;;;2.67;;
7531;SDS011;3807;49.030;8.714;2022-08-04T06:03:22;5.43;;;2.30;;
7531;SDS011;3807;49.030;8.714;2022-08-04T06:05:49;2.50;;;1.90;;
7531;SDS011;3807;49.030;8.714;2022-08-04T06:08:15;2.20;;;2.00;;
7531;SDS011;3807;49.030;8.714;2022-08-04T06:10:41;5.57;;;2.20;;
7531;SDS011;3807;49.030;8.714;2022-08-04T06:13:10;2.20;;;2.00;;
7531;SDS011;3807;49.030;8.714;2022-08-04T06:15:39;4.87;;;1.80;;
7531;SDS011;3807;49.030;8.714;2022-08-04T06:18:07;4.43;;;2.20;;
7531;SDS011;3807;49.030;8.714;2022-08-04T06:20:35;4.60;;;2.15;;
7531;SDS011;3807;49.030;8.714;2022-08-04T06:23:04;6.75;;;2.20;;
7531;SDS011;3807;49.030;8.714;2022-08-04T06:25:33;2.75;;;2.15;;
7531;SDS011;3807;49.030;8.714;2022-08-04T06:28:01;2.85;;;1.92;;
7531;SDS011;3807;49.030;8.714;2022-08-04T06:30:30;2.80;;;2.08;;
7531;SDS011;3807;49.030;8.714;2022-08-04T06:32:56;5.07;;;2.40;;
7531;SDS011;3807;49.030;8.714;2022-08-04T06:35:26;5.80;;;2.20;;
7531;SDS011;3807;49.030;8.714;2022-08-04T06:37:54;3.35;;;2.28;;
7531;SDS011;3807;49.030;8.714;2022-08-04T06:40:21;6.12;;;2.20;;
7531;SDS011;3807;49.030;8.714;2022-08-04T06:42:49;6.87;;;2.33;;
7531;SDS011;3807;49.030;8.714;2022-08-04T06:45:15;6.60;;;2.22;;
7531;SDS011;3807;49.030;8.714;2022-08-04T06:47:43;9.07;;;2.17;;
7531;SDS011;3807;49.030;8.714;2022-08-04T06:50:11;5.78;;;2.10;;
7531;SDS011;3807;49.030;8.714;2022-08-04T06:52:37;3.85;;;2.65;;
7531;SDS011;3807;49.030;8.714;2022-08-04T06:55:04;16.17;;;2.78;;
7531;SDS011;3807;49.030;8.714;2022-08-04T06:57:32;9.90;;;2.20;;
7531;SDS011;3807;49.030;8.714;2022-08-04T07:00:05;15.45;;;2.45;;
7531;SDS011;3807;49.030;8.714;2022-08-04T07:02:46;4.45;;;2.05;;
7531;SDS011;3807;49.030;8.714;2022-08-04T07:05:14;2.90;;;2.20;;
7531;SDS011;3807;49.030;8.714;2022-08-04T07:07:40;12.65;;;2.78;;
7531;SDS011;3807;49.030;8.714;2022-08-04T07:10:07;8.82;;;2.35;;
7531;SDS011;3807;49.030;8.714;2022-08-04T07:12:33;10.95;;;2.67;;
7531;SDS011;3807;49.030;8.714;2022-08-04T07:15:00;15.68;;;3.30;;
7531;SDS011;3807;49.030;8.714;2022-08-04T07:17:27;11.70;;;2.70;;
7531;SDS011;3807;49.030;8.714;2022-08-04T07:19:52;16.00;;;2.92;;
7531;SDS011;3807;49.030;8.714;2022-08-04T07:22:18;17.85;;;2.62;;
7531;SDS011;3807;49.030;8.714;2022-08-04T07:24:45;21.50;;;2.85;;
7531;SDS011;3807;49.030;8.714;2022-08-04T07:27:10;11.35;;;2.53;;
7531;SDS011;3807;49.030;8.714;2022-08-04T07:29:36;6.20;;;2.45;;
7531;SDS011;3807;49.030;8.714;2022-08-04T07:32:03;10.57;;;3.03;;
7531;SDS011;3807;49.030;8.714;2022-08-04T07:34:29;9.70;;;2.15;;
7531;SDS011;3807;49.030;8.714;2022-08-04T07:36:56;5.30;;;1.77;;
7531;SDS011;3807;49.030;8.714;2022-08-04T07:39:24;4.07;;;2.03;;
7531;SDS011;3807;49.030;8.714;2022-08-04T07:41:52;11.20;;;2.17;;
7531;SDS011;3807;49.030;8.714;2022-08-04T07:44:19;13.02;;;3.00;;
7531;SDS011;3807;49.030;8.714;2022-08-04T07:46:45;9.05;;;2.37;;
7531;SDS011;3807;49.030;8.714;2022-08-04T07:49:10;8.73;;;2.72;;
7531;SDS011;3807;49.030;8.714;2022-08-04T07:51:36;3.92;;;1.92;;
7531;SDS011;3807;49.030;8.714;2022-08-04T07:54:03;11.73;;;3.25;;
7531;SDS011;3807;49.030;8.714;2022-08-04T07:56:33;8.70;;;2.20;;
7531;SDS011;3807;49.030;8.714;2022-08-04T07:59:00;6.32;;;2.15;;
7531;SDS011;3807;49.030;8.714;2022-08-04T08:01:26;7.87;;;2.72;;
7531;SDS011;3807;49.030;8.714;2022-08-04T08:03:53;3.72;;;2.28;;
7531;SDS011;3807;49.030;8.714;2022-08-04T08:06:21;9.93;;;2.12;;
7531;SDS011;3807;49.030;8.714;2022-08-04T08:08:46;9.50;;;2.12;;
7531;SDS011;3807;49.030;8.714;2022-08-04T08:11:12;6.15;;;2.15;;
7531;SDS011;3807;49.030;8.714;2022-08-04T08:13:38;7.72;;;2.37;;
7531;SDS011;3807;49.030;8.714;2022-08-04T08:16:03;2.22;;;2.00;;
7531;SDS011;3807;49.030;8.714;2022-08-04T08:18:30;2.28;;;1.77;;
7531;SDS011;3807;49.030;8.714;2022-08-04T08:20:56;3.00;;;2.30;;
7531;SDS011;3807;49.030;8.714;2022-08-04T08:23:22;3.35;;;2.30;;
7531;SDS011;3807;49.030;8.714;2022-08-04T08:25:49;5.15;;;2.00;;
7531;SDS011;3807;49.030;8.714;2022-08-04T08:28:15;10.20;;;2.20;;
7531;SDS011;3807;49.030;8.714;2022-08-04T08:30:41;6.35;;;2.35;;
7531;SDS011;3807;49.030;8.714;2022-08-04T08:33:07;6.65;;;2.25;;
7531;SDS011;3807;49.030;8.714;2022-08-04T08:35:49;3.17;;;1.95;;
7531;SDS011;3807;49.030;8.714;2022-08-04T08:54:46;2.22;;;2.00;;
7531;SDS011;3807;49.030;8.714;2022-08-04T09:00:05;3.20;;;2.17;;
7531;SDS011;3807;49.030;8.714;2022-08-04T09:08:24;3.92;;;2.17;;
7531;SDS011;3807;49.030;8.714;2022-08-04T09:11:17;5.25;;;1.90;;
7531;SDS011;3807;49.030;8.714;2022-08-04T09:14:04;2.28;;;2.08;;
7531;SDS011;3807;49.030;8.714;2022-08-04T09:16:50;3.45;;;1.77;;
7531;SDS011;3807;49.030;8.714;2022-08-04T09:19:22;2.12;;;1.95;;
7531;SDS011;3807;49.030;8.714;2022-08-04T09:22:15;4.50;;;2.20;;
7531;SDS011;3807;49.030;8.714;2022-08-04T09:24:50;3.00;;;2.10;;
7531;SDS011;3807;49.030;8.714;2022-08-04T09:32:49;3.00;;;2.42;;
7531;SDS011;3807;49.030;8.714;2022-08-04T09:38:09;4.22;;;2.37;;
7531;SDS011;3807;49.030;8.714;2022-08-04T09:46:28;5.60;;;2.87;;
7531;SDS011;3807;49.030;8.714;2022-08-04T09:49:01;4.97;;;2.35;;
7531;SDS011;3807;49.030;8.714;2022-08-04T09:54:32;6.60;;;2.40;;
7531;SDS011;3807;49.030;8.714;2022-08-04T09:57:27;2.90;;;2.45;;
7531;SDS011;3807;49.030;8.714;2022-08-04T10:00:19;2.45;;;2.10;;
7531;SDS011;3807;49.030;8.714;2022-08-04T10:02:52;2.37;;;2.17;;
7531;SDS011;3807;49.030;8.714;2022-08-04T10:05:32;6.30;;;2.20;;
7531;SDS011;3807;49.030;8.714;2022-08-04T10:08:09;5.32;;;2.28;;
7531;SDS011;3807;49.030;8.714;2022-08-04T10:11:03;5.80;;;2.08;;
7531;SDS011;3807;49.030;8.714;2022-08-04T10:16:46;2.40;;;1.95;;
7531;SDS011;3807;49.030;8.714;2022-08-04T10:25:05;3.40;;;2.10;;
7531;SDS011;3807;49.030;8.714;2022-08-04T10:27:37;3.78;;;2.30;;
7531;SDS011;3807;49.030;8.714;2022-08-04T10:30:07;3.37;;;2.05;;
7531;SDS011;3807;49.030;8.714;2022-08-04T10:32:54;3.03;;;1.98;;
7531;SDS011;3807;49.030;8.714;2022-08-04T10:35:28;3.55;;;1.95;;
7531;SDS011;3807;49.030;8.714;2022-08-04T10:40:30;8.32;;;2.50;;
7531;SDS011;3807;49.030;8.714;2022-08-04T10:43:10;3.65;;;2.00;;
7531;SDS011;3807;49.030;8.714;2022-08-04T10:56:45;2.92;;;1.77;;
7531;SDS011;3807;49.030;8.714;2022-08-04T11:01:58;2.70;;;2.17;;
7531;SDS011;3807;49.030;8.714;2022-08-04T11:04:36;3.58;;;2.05;;
7531;SDS011;3807;49.030;8.714;2022-08-04T11:07:08;2.35;;;2.15;;
7531;SDS011;3807;49.030;8.714;2022-08-04T11:09:36;7.43;;;2.33;;
7531;SDS011;3807;49.030;8.714;2022-08-04T11:12:16;2.65;;;1.90;;
7531;SDS011;3807;49.030;8.714;2022-08-04T11:14:48;4.65;;;2.00;;
7531;SDS011;3807;49.030;8.714;2022-08-04T11:17:25;4.32;;;2.20;;
7531;SDS011;3807;49.030;8.714;2022-08-04T11:22:41;4.03;;;1.98;;
7531;SDS011;3807;49.030;8.714;2022-08-04T11:25:18;3.00;;;2.20;;
7531;SDS011;3807;49.030;8.714;2022-08-04T11:30:51;4.18;;;1.80;;
7531;SDS011;3807;49.030;8.714;2022-08-04T11:36:39;3.42;;;1.50;;
7531;SDS011;3807;49.030;8.714;2022-08-04T11:41:39;3.87;;;1.83;;
7531;SDS011;3807;49.030;8.714;2022-08-04T11:44:15;2.97;;;1.75;;
7531;SDS011;3807;49.030;8.714;2022-08-04T11:46:47;1.90;;;1.48;;
7531;SDS011;3807;49.030;8.714;2022-08-04T11:49:39;2.40;;;1.80;;
7531;SDS011;3807;49.030;8.714;2022-08-04T11:52:08;3.58;;;2.37;;
7531;SDS011;3807;49.030;8.714;2022-08-04T11:54:36;4.55;;;1.80;;
7531;SDS011;3807;49.030;8.714;2022-08-04T11:57:03;3.40;;;2.00;;
7531;SDS011;3807;49.030;8.714;2022-08-04T11:59:29;5.82;;;1.95;;
7531;SDS011;3807;49.030;8.714;2022-08-04T12:04:40;2.12;;;1.73;;
7531;SDS011;3807;49.030;8.714;2022-08-04T12:15:25;2.00;;;1.37;;
7531;SDS011;3807;49.030;8.714;2022-08-04T12:18:09;3.53;;;1.55;;
7531;SDS011;3807;49.030;8.714;2022-08-04T12:20:41;2.92;;;1.37;;
7531;SDS011;3807;49.030;8.714;2022-08-04T12:23:21;1.70;;;1.60;;
7531;SDS011;3807;49.030;8.714;2022-08-04T12:25:51;1.45;;;1.30;;
7531;SDS011;3807;49.030;8.714;2022-08-04T12:30:57;2.78;;;1.40;;
7531;SDS011;3807;49.030;8.714;2022-08-04T12:33:27;1.50;;;1.40;;
7531;SDS011;3807;49.030;8.714;2022-08-04T12:36:00;1.55;;;1.40;;
7531;SDS011;3807;49.030;8.714;2022-08-04T12:38:37;1.52;;;1.35;;
7531;SDS011;3807;49.030;8.714;2022-08-04T12:41:13;2.15;;;1.50;;
7531;SDS011;3807;49.030;8.714;2022-08-04T12:43:45;2.35;;;1.50;;
7531;SDS011;3807;49.030;8.714;2022-08-04T12:46:19;4.05;;;1.60;;
7531;SDS011;3807;49.030;8.714;2022-08-04T12:48:47;1.50;;;1.33;;
7531;SDS011;3807;49.030;8.714;2022-08-04T12:51:14;3.00;;;1.60;;
7531;SDS011;3807;49.030;8.714;2022-08-04T12:53:41;1.70;;;1.60;;
7531;SDS011;3807;49.030;8.714;2022-08-04T12:56:08;4.50;;;1.75;;
7531;SDS011;3807;49.030;8.714;2022-08-04T12:58:36;2.00;;;1.60;;
7531;SDS011;3807;49.030;8.714;2022-08-04T13:01:05;3.42;;;1.83;;
7531;SDS011;3807;49.030;8.714;2022-08-04T13:03:37;3.42;;;1.60;;
7531;SDS011;3807;49.030;8.714;2022-08-04T13:06:09;2.10;;;1.60;;
7531;SDS011;3807;49.030;8.714;2022-08-04T13:08:38;2.53;;;2.00;;
7531;SDS011;3807;49.030;8.714;2022-08-04T13:11:06;1.80;;;1.30;;
7531;SDS011;3807;49.030;8.714;2022-08-04T13:13:35;5.05;;;1.55;;
7531;SDS011;3807;49.030;8.714;2022-08-04T13:16:03;1.40;;;1.30;;
7531;SDS011;3807;49.030;8.714;2022-08-04T13:18:36;1.87;;;1.45;;
7531;SDS011;3807;49.030;8.714;2022-08-04T13:23:47;3.83;;;1.67;;
7531;SDS011;3807;49.030;8.714;2022-08-04T13:26:14;2.83;;;1.48;;
7531;SDS011;3807;49.030;8.714;2022-08-04T13:28:45;6.60;;;1.70;;
7531;SDS011;3807;49.030;8.714;2022-08-04T13:31:13;3.08;;;1.37;;
7531;SDS011;3807;49.030;8.714;2022-08-04T13:33:42;4.72;;;1.83;;
7531;SDS011;3807;49.030;8.714;2022-08-04T13:36:10;2.25;;;1.67;;
7531;SDS011;3807;49.030;8.714;2022-08-04T13:38:47;2.40;;;1.45;;
7531;SDS011;3807;49.030;8.714;2022-08-04T13:41:16;3.12;;;1.50;;
7531;SDS011;3807;49.030;8.714;2022-08-04T13:43:46;1.90;;;1.42;;
7531;SDS011;3807;49.030;8.714;2022-08-04T13:46:48;3.72;;;1.52;;
7531;SDS011;3807;49.030;8.714;2022-08-04T13:49:11;3.97;;;1.87;;
7531;SDS011;3807;49.030;8.714;2022-08-04T13:51:51;3.95;;;1.73;;
7531;SDS011;3807;49.030;8.714;2022-08-04T13:54:19;4.12;;;1.58;;
7531;SDS011;3807;49.030;8.714;2022-08-04T13:56:46;1.85;;;1.40;;
7531;SDS011;3807;49.030;8.714;2022-08-04T13:59:14;3.12;;;1.50;;
7531;SDS011;3807;49.030;8.714;2022-08-04T14:01:43;1.58;;;1.48;;
7531;SDS011;3807;49.030;8.714;2022-08-04T14:04:16;1.48;;;1.37;;
7531;SDS011;3807;49.030;8.714;2022-08-04T14:09:15;3.17;;;1.77;;
7531;SDS011;3807;49.030;8.714;2022-08-04T14:11:44;1.60;;;1.50;;
7531;SDS011;3807;49.030;8.714;2022-08-04T14:14:21;1.60;;;1.50;;
7531;SDS011;3807;49.030;8.714;2022-08-04T14:17:03;4.00;;;1.52;;
7531;SDS011;3807;49.030;8.714;2022-08-04T14:20:14;1.45;;;1.35;;
7531;SDS011;3807;49.030;8.714;2022-08-04T14:27:28;1.70;;;1.50;;
7531;SDS011;3807;49.030;8.714;2022-08-04T14:30:04;2.92;;;1.50;;
7531;SDS011;3807;49.030;8.714;2022-08-04T14:32:29;1.55;;;1.45;;
7531;SDS011;3807;49.030;8.714;2022-08-04T14:34:55;4.65;;;1.73;;
7531;SDS011;3807;49.030;8.714;2022-08-04T14:37:20;3.62;;;1.50;;
7531;SDS011;3807;49.030;8.714;2022-08-04T14:39:51;1.58;;;1.30;;
7531;SDS011;3807;49.030;8.714;2022-08-04T14:42:19;1.90;;;1.65;;
7531;SDS011;3807;49.030;8.714;2022-08-04T14:45:04;1.98;;;1.50;;
7531;SDS011;3807;49.030;8.714;2022-08-04T14:47:40;3.87;;;1.40;;
7531;SDS011;3807;49.030;8.714;2022-08-04T14:50:07;1.58;;;1.30;;
7531;SDS011;3807;49.030;8.714;2022-08-04T14:52:33;2.85;;;1.55;;
7531;SDS011;3807;49.030;8.714;2022-08-04T14:55:13;2.62;;;1.62;;
7531;SDS011;3807;49.030;8.714;2022-08-04T14:57:43;3.22;;;1.70;;
7531;SDS011;3807;49.030;8.714;2022-08-04T15:00:09;2.35;;;1.50;;
7531;SDS011;3807;49.030;8.714;2022-08-04T15:02:35;3.35;;;1.65;;
7531;SDS011;3807;49.030;8.714;2022-08-04T15:05:03;3.50;;;1.40;;
7531;SDS011;3807;49.030;8.714;2022-08-04T15:07:30;2.37;;;1.50;;
7531;SDS011;3807;49.030;8.714;2022-08-04T15:09:55;1.55;;;1.40;;
7531;SDS011;3807;49.030;8.714;2022-08-04T15:12:21;2.25;;;1.30;;
7531;SDS011;3807;49.030;8.714;2022-08-04T15:14:47;3.58;;;1.45;;
7531;SDS011;3807;49.030;8.714;2022-08-04T15:17:12;4.82;;;1.30;;
7531;SDS011;3807;49.030;8.714;2022-08-04T15:19:38;1.37;;;1.20;;
7531;SDS011;3807;49.030;8.714;2022-08-04T15:22:04;2.78;;;1.40;;
7531;SDS011;3807;49.030;8.714;2022-08-04T15:24:30;1.90;;;1.40;;
7531;SDS011;3807;49.030;8.714;2022-08-04T15:26:56;3.28;;;1.73;;
7531;SDS011;3807;49.030;8.714;2022-08-04T15:29:26;3.00;;;1.65;;
7531;SDS011;3807;49.030;8.714;2022-08-04T15:31:55;3.95;;;1.52;;
7531;SDS011;3807;49.030;8.714;2022-08-04T15:34:21;2.55;;;1.33;;
7531;SDS011;3807;49.030;8.714;2022-08-04T15:36:57;1.40;;;1.30;;
7531;SDS011;3807;49.030;8.714;2022-08-04T15:39:43;3.67;;;1.50;;
7531;SDS011;3807;49.030;8.714;2022-08-04T15:42:13;2.90;;;1.40;;
7531;SDS011;3807;49.030;8.714;2022-08-04T15:44:52;2.28;;;1.50;;
7531;SDS011;3807;49.030;8.714;2022-08-04T15:50:29;1.87;;;1.30;;
7531;SDS011;3807;49.030;8.714;2022-08-04T15:58:03;1.30;;;1.20;;
7531;SDS011;3807;49.030;8.714;2022-08-04T16:01:16;2.95;;;1.40;;
7531;SDS011;3807;49.030;8.714;2022-08-04T16:08:32;2.72;;;1.55;;
7531;SDS011;3807;49.030;8.714;2022-08-04T16:16:33;1.58;;;1.45;;
7531;SDS011;3807;49.030;8.714;2022-08-04T16:19:15;1.42;;;1.20;;
7531;SDS011;3807;49.030;8.714;2022-08-04T16:22:02;3.10;;;1.70;;
7531;SDS011;3807;49.030;8.714;2022-08-04T16:24:29;3.53;;;1.50;;
7531;SDS011;3807;49.030;8.714;2022-08-04T16:27:05;3.58;;;1.23;;
7531;SDS011;3807;49.030;8.714;2022-08-04T16:37:28;1.33;;;1.23;;
7531;SDS011;3807;49.030;8.714;2022-08-04T16:43:29;1.70;;;1.48;;
7531;SDS011;3807;49.030;8.714;2022-08-04T16:45:55;1.77;;;1.40;;
7531;SDS011;3807;49.030;8.714;2022-08-04T16:48:28;2.12;;;1.40;;
7531;SDS011;3807;49.030;8.714;2022-08-04T16:50:59;1.70;;;1.30;;
7531;SDS011;3807;49.030;8.714;2022-08-04T16:53:37;1.62;;;1.30;;
7531;SDS011;3807;49.030;8.714;2022-08-04T16:56:05;1.60;;;1.30;;
7531;SDS011;3807;49.030;8.714;2022-08-04T16:58:33;1.20;;;1.10;;
7531;SDS011;3807;49.030;8.714;2022-08-04T17:01:06;3.50;;;1.23;;
7531;SDS011;3807;49.030;8.714;2022-08-04T17:03:35;1.15;;;1.05;;
7531;SDS011;3807;49.030;8.714;2022-08-04T17:08:57;1.95;;;1.40;;
7531;SDS011;3807;49.030;8.714;2022-08-04T17:11:31;3.08;;;1.23;;
7531;SDS011;3807;49.030;8.714;2022-08-04T17:13:57;1.30;;;1.20;;
7531;SDS011;3807;49.030;8.714;2022-08-04T17:16:22;1.70;;;1.27;;
7531;SDS011;3807;49.030;8.714;2022-08-04T17:18:50;2.72;;;1.30;;
7531;SDS011;3807;49.030;8.714;2022-08-04T17:21:20;2.20;;;1.45;;
7531;SDS011;3807;49.030;8.714;2022-08-04T17:23:48;2.40;;;1.37;;
7531;SDS011;3807;49.030;8.714;2022-08-04T17:26:18;2.05;;;1.40;;
7531;SDS011;3807;49.030;8.714;2022-08-04T17:28:46;4.07;;;1.50;;
7531;SDS011;3807;49.030;8.714;2022-08-04T17:31:15;1.48;;;1.30;;
7531;SDS011;3807;49.030;8.714;2022-08-04T17:33:45;2.50;;;1.50;;
7531;SDS011;3807;49.030;8.714;2022-08-04T17:36:11;2.22;;;1.55;;
7531;SDS011;3807;49.030;8.714;2022-08-04T17:38:42;1.48;;;1.37;;
7531;SDS011;3807;49.030;8.714;2022-08-04T17:41:13;2.35;;;1.50;;
7531;SDS011;3807;49.030;8.714;2022-08-04T17:43:46;1.45;;;1.35;;
7531;SDS011;3807;49.030;8.714;2022-08-04T17:46:14;1.60;;;1.25;;
7531;SDS011;3807;49.030;8.714;2022-08-04T17:48:43;1.62;;;1.40;;
7531;SDS011;3807;49.030;8.714;2022-08-04T17:51:13;3.28;;;1.50;;
7531;SDS011;3807;49.030;8.714;2022-08-04T17:53:42;2.15;;;1.42;;
7531;SDS011;3807;49.030;8.714;2022-08-04T17:56:27;2.75;;;1.65;;
7531;SDS011;3807;49.030;8.714;2022-08-04T17:59:06;5.93;;;1.90;;
7531;SDS011;3807;49.030;8.714;2022-08-04T18:06:51;8.07;;;1.45;;
7531;SDS011;3807;49.030;8.714;2022-08-04T18:09:22;7.00;;;1.65;;
7531;SDS011;3807;49.030;8.714;2022-08-04T18:11:52;9.88;;;1.67;;
7531;SDS011;3807;49.030;8.714;2022-08-04T18:14:22;4.47;;;1.52;;
7531;SDS011;3807;49.030;8.714;2022-08-04T18:16:49;1.95;;;1.45;;
7531;SDS011;3807;49.030;8.714;2022-08-04T18:19:15;1.50;;;1.20;;
7531;SDS011;3807;49.030;8.714;2022-08-04T18:21:41;2.83;;;1.48;;
7531;SDS011;3807;49.030;8.714;2022-08-04T18:24:13;7.18;;;1.70;;
7531;SDS011;3807;49.030;8.714;2022-08-04T18:26:39;4.22;;;1.73;;
7531;SDS011;3807;49.030;8.714;2022-08-04T18:29:05;4.80;;;2.92;;
7531;SDS011;3807;49.030;8.714;2022-08-04T18:31:31;4.45;;;3.10;;
7531;SDS011;3807;49.030;8.714;2022-08-04T18:33:58;7.45;;;3.30;;
7531;SDS011;3807;49.030;8.714;2022-08-04T18:36:23;5.82;;;2.70;;
7531;SDS011;3807;49.030;8.714;2022-08-04T18:38:48;8.10;;;2.42;;
7531;SDS011;3807;49.030;8.714;2022-08-04T18:41:14;3.22;;;2.58;;
7531;SDS011;3807;49.030;8.714;2022-08-04T18:43:39;5.35;;;3.25;;
7531;SDS011;3807;49.030;8.714;2022-08-04T18:46:04;6.78;;;3.65;;
7531;SDS011;3807;49.030;8.714;2022-08-04T18:48:30;3.45;;;2.50;;
7531;SDS011;3807;49.030;8.714;2022-08-04T18:50:55;2.42;;;2.15;;
7531;SDS011;3807;49.030;8.714;2022-08-04T18:53:20;9.35;;;2.50;;
7531;SDS011;3807;49.030;8.714;2022-08-04T18:55:46;2.65;;;2.42;;
7531;SDS011;3807;49.030;8.714;2022-08-04T18:58:11;3.10;;;2.80;;
7531;SDS011;3807;49.030;8.714;2022-08-04T19:00:37;8.32;;;2.20;;
7531;SDS011;3807;49.030;8.714;2022-08-04T19:03:03;4.25;;;1.85;;
7531;SDS011;3807;49.030;8.714;2022-08-04T19:05:28;5.37;;;2.22;;
7531;SDS011;3807;49.030;8.714;2022-08-04T19:07:54;7.55;;;2.47;;
7531;SDS011;3807;49.030;8.714;2022-08-04T19:10:19;2.25;;;2.05;;
7531;SDS011;3807;49.030;8.714;2022-08-04T19:12:45;3.00;;;2.30;;
7531;SDS011;3807;49.030;8.714;2022-08-04T19:15:10;5.07;;;2.40;;
7531;SDS011;3807;49.030;8.714;2022-08-04T19:17:36;6.78;;;2.50;;
7531;SDS011;3807;49.030;8.714;2022-08-04T19:20:01;10.90;;;2.62;;
7531;SDS011;3807;49.030;8.714;2022-08-04T19:22:27;5.70;;;2.37;;
7531;SDS011;3807;49.030;8.714;2022-08-04T19:24:53;7.87;;;2.53;;
7531;SDS011;3807;49.030;8.714;2022-08-04T19:27:18;4.68;;;1.98;;
7531;SDS011;3807;49.030;8.714;2022-08-04T19:29:43;11.55;;;2.62;;
7531;SDS011;3807;49.030;8.714;2022-08-04T19:32:10;4.28;;;2.55;;
7531;SDS011;3807;49.030;8.714;2022-08-04T19:34:36;2.60;;;2.05;;
7531;SDS011;3807;49.030;8.714;2022-08-04T19:37:02;5.00;;;2.12;;
7531;SDS011;3807;49.030;8.714;2022-08-04T19:39:27;5.32;;;2.30;;
7531;SDS011;3807;49.030;8.714;2022-08-04T19:41:53;6.05;;;2.15;;
7531;SDS011;3807;49.030;8.714;2022-08-04T19:44:18;7.70;;;2.10;;
7531;SDS011;3807;49.030;8.714;2022-08-04T19:46:43;5.78;;;2.92;;
7531;SDS011;3807;49.030;8.714;2022-08-04T19:49:10;6.72;;;2.45;;
7531;SDS011;3807;49.030;8.714;2022-08-04T19:51:36;4.30;;;2.30;;
7531;SDS011;3807;49.030;8.714;2022-08-04T19:54:03;3.80;;;2.25;;
7531;SDS011;3807;49.030;8.714;2022-08-04T19:56:29;7.68;;;2.83;;
7531;SDS011;3807;49.030;8.714;2022-08-04T19:58:55;2.53;;;2.05;;
7531;SDS011;3807;49.030;8.714;2022-08-04T20:01:20;7.03;;;1.92;;
7531;SDS011;3807;49.030;8.714;2022-08-04T20:03:45;2.70;;;1.52;;
7531;SDS011;3807;49.030;8.714;2022-08-04T20:06:12;7.68;;;1.85;;
7531;SDS011;3807;49.030;8.714;2022-08-04T20:08:37;4.62;;;1.50;;
7531;SDS011;3807;49.030;8.714;2022-08-04T20:11:03;3.85;;;2.60;;
7531;SDS011;3807;49.030;8.714;2022-08-04T20:13:28;8.15;;;2.95;;